Time;durP1;ratioP1;P1;durP2;ratioP2;P2;SDS_P1;SDS_P2;PMS_P1;PMS_P2;Temp;Humidity;BMP_temperature;BMP_pressure;BME280_temperature;BME280_humidity;BME280_pressure;Samples;Min_cycle;Max_cycle;Signal;HPM_P1;HPM_P2
2023/08/23 08:12:06;;;;;;;;;;;25.20;65.00;;;24.77;59.19;96456.81;6250524;22;19919;-87
2023/08/23 08:14:36;;;;;;;;;;;25.20;65.10;;;24.79;59.01;96458.06;6224330;22;20250;-87
2023/08/23 08:17:04;;;;;;;;;;;25.20;65.00;;;24.80;58.82;96462.50;6193806;22;19919;-87
2023/08/23 08:19:32;;;;;;;;;;;25.30;64.80;;;24.82;58.97;96459.34;6218795;23;19935;-87
2023/08/23 08:22:00;;;;;;;;;;;25.30;64.80;;;24.84;59.00;96459.78;5948894;23;2170127;-87
2023/08/23 08:24:29;;;;;;;;;;;25.30;64.90;;;24.84;59.12;96450.59;5861592;24;19924;-87
2023/08/23 08:26:59;;;;;;;;;;;25.30;64.80;;;24.84;58.86;96456.19;5934588;24;19924;-87
2023/08/23 08:29:29;;;;;;;;;;;25.30;64.90;;;24.86;58.93;96451.03;5934258;24;19924;-87
2023/08/23 08:31:57;;;;;;;;;;;25.40;64.80;;;24.85;58.81;96441.03;5935176;24;20241;-87
2023/08/23 08:34:25;;;;;;;;;;;25.30;64.80;;;24.87;58.84;96447.88;5911946;24;19930;-87
2023/08/23 08:36:54;;;;;;;;;;;25.30;64.70;;;24.86;58.87;96439.81;5911183;24;19923;-87
2023/08/23 08:39:22;;;;;;;;;;;25.30;64.70;;;24.84;58.85;96434.59;5935172;24;19923;-87
2023/08/23 08:41:51;;;;;;;;;;;25.30;65.60;;;24.85;59.01;96443.81;5890888;24;19931;-86
2023/08/23 08:44:19;;;;;;;;;;;25.40;64.90;;;24.85;59.15;96453.03;5934870;24;19924;-87
2023/08/23 08:46:49;;;;;;;;;;;25.30;64.90;;;24.86;59.19;96453.81;5934933;24;19923;-87
2023/08/23 08:49:17;;;;;;;;;;;25.40;65.10;;;24.86;59.55;96453.81;5912212;24;19931;-87
2023/08/23 08:51:47;;;;;;;;;;;25.40;65.20;;;24.88;59.37;96454.28;5935241;24;20348;-87
2023/08/23 08:54:16;;;;;;;;;;;25.40;65.10;;;24.88;59.40;96451.47;5934791;24;19940;-87
2023/08/23 08:56:44;;;;;;;;;;;25.40;65.10;;;24.87;59.37;96450.69;5911589;24;20343;-87
2023/08/23 08:59:12;;;;;;;;;;;25.40;64.90;;;24.91;58.97;96456.38;5934541;24;19930;-87
2023/08/23 09:01:43;;;;;;;;;;;25.40;64.80;;;24.88;59.27;96462.69;5912035;24;19931;-87
2023/08/23 09:04:13;;;;;;;;;;;25.40;64.90;;;24.85;59.20;96452.22;5911754;24;19935;-87
2023/08/23 09:06:41;;;;;;;;;;;25.40;64.90;;;24.83;59.29;96454.56;5908337;24;20363;-87
2023/08/23 09:09:09;;;;;;;;;;;25.40;64.90;;;24.84;59.28;96448.59;5927843;24;19924;-87
2023/08/23 09:11:40;;;;;;;;;;;25.40;64.90;;;24.81;59.31;96446.50;5905820;24;19923;-87
2023/08/23 09:14:15;;;;;;;;;;;25.40;64.80;;;24.80;59.13;96439.28;5905778;24;19923;-87
2023/08/23 09:16:44;;;;;;;;;;;25.30;64.90;;;24.78;59.38;96442.44;5905432;24;19931;-87
2023/08/23 09:19:14;;;;;;;;;;;25.30;64.90;;;24.77;59.27;96434.41;5906895;24;19927;-87
2023/08/23 09:21:45;;;;;;;;;;;25.30;65.00;;;24.79;59.17;96435.66;5946784;23;19929;-89
2023/08/23 09:24:14;;;;;;;;;;;25.30;65.40;;;24.79;59.29;96430.06;6084930;23;19925;-87
2023/08/23 09:26:43;;;;;;;;;;;25.30;64.90;;;24.78;59.15;96424.84;6078204;23;19944;-87
2023/08/23 09:29:11;;;;;;;;;;;25.30;64.90;;;24.81;59.03;96426.91;6079256;23;19943;-87
2023/08/23 09:31:40;;;;;;;;;;;25.30;64.80;;;24.78;59.14;96425.63;6102953;23;19921;-87
2023/08/23 09:34:14;;;;;;;;;;;25.30;64.80;;;24.78;59.40;96422.84;6078775;23;19944;-87
2023/08/23 09:36:43;;;;;;;;;;;25.30;64.90;;;24.77;59.31;96426.81;6078758;23;19923;-87
2023/08/23 09:39:12;;;;;;;;;;;25.30;64.80;;;24.75;59.10;96415.16;6078833;23;19921;-87
2023/08/23 09:41:41;;;;;;;;;;;25.30;64.90;;;24.76;59.22;96410.38;6079278;23;20260;-87
2023/08/23 09:44:09;;;;;;;;;;;25.30;64.90;;;24.75;59.33;96415.16;6078595;23;19922;-87
2023/08/23 09:46:39;;;;;;;;;;;25.30;65.00;;;24.76;59.32;96399.19;6102600;23;19921;-87
2023/08/23 09:49:08;;;;;;;;;;;25.30;64.90;;;24.76;59.33;96394.38;6101819;23;19921;-87
2023/08/23 09:51:39;;;;;;;;;;;25.30;65.00;;;24.77;59.49;96395.22;6102834;23;19922;-86
2023/08/23 09:54:11;;;;;;;;;;;25.30;64.90;;;24.75;59.26;96392.75;6078583;23;19929;-86
2023/08/23 09:56:40;;;;;;;;;;;25.30;64.90;;;24.77;59.50;96395.22;6107118;23;19921;-87
2023/08/23 09:59:08;;;;;;;;;;;25.30;64.90;;;24.74;59.37;96384.72;6078916;23;19922;-86
2023/08/23 10:01:37;;;;;;;;;;;25.30;64.90;;;24.74;59.20;96379.13;6078970;23;19929;-87
2023/08/23 10:04:05;;;;;;;;;;;25.30;64.90;;;24.73;59.45;96383.09;6054757;23;19922;-87
2023/08/23 10:06:33;;;;;;;;;;;25.30;64.90;;;24.71;59.54;96375.06;6102595;23;19928;-87
2023/08/23 10:09:04;;;;;;;;;;;25.20;65.00;;;24.69;59.51;96369.00;6054819;23;20438;-87
2023/08/23 10:11:32;;;;;;;;;;;25.20;65.00;;;24.67;59.80;96374.13;6103217;23;19933;-86
2023/08/23 10:14:01;;;;;;;;;;;25.20;65.20;;;24.68;59.68;96375.75;6079206;23;19928;-86
2023/08/23 10:16:29;;;;;;;;;;;25.20;65.20;;;24.68;59.72;96372.94;6078536;23;19921;-87
2023/08/23 10:18:57;;;;;;;;;;;25.20;65.20;;;24.66;59.47;96373.28;6102645;23;20256;-87
2023/08/23 10:21:27;;;;;;;;;;;25.20;65.30;;;24.64;59.45;96364.47;6100028;23;19921;-87
2023/08/23 10:23:57;;;;;;;;;;;25.20;65.40;;;24.64;59.81;96360.84;6113012;23;19921;-87
2023/08/23 10:26:28;;;;;;;;;;;25.20;65.40;;;24.63;59.64;96362.00;6102037;23;20372;-87
2023/08/23 10:28:56;;;;;;;;;;;25.20;65.40;;;24.63;59.68;96357.25;6102973;23;19921;-87
2023/08/23 10:31:26;;;;;;;;;;;25.20;65.40;;;24.63;59.92;96353.59;6102957;23;20493;-86
2023/08/23 10:33:55;;;;;;;;;;;25.20;65.40;;;24.62;59.84;96355.59;6102693;23;19922;-87
2023/08/23 10:36:27;;;;;;;;;;;25.20;65.40;;;24.62;59.85;96361.22;6126759;23;19937;-87
2023/08/23 10:38:56;;;;;;;;;;;25.20;65.40;;;24.60;59.80;96357.94;6078338;23;19921;-87
2023/08/23 10:41:24;;;;;;;;;;;25.20;65.40;;;24.62;59.79;96360.38;6102596;23;19922;-87
2023/08/23 10:43:54;;;;;;;;;;;25.10;65.40;;;24.59;59.93;96355.53;6102619;23;19925;-87
2023/08/23 10:46:23;;;;;;;;;;;25.10;65.50;;;24.59;59.87;96356.31;6103249;23;19921;-87
2023/08/23 10:48:53;;;;;;;;;;;25.10;65.50;;;24.59;59.46;96347.91;6078471;23;19926;-87
2023/08/23 10:51:22;;;;;;;;;;;25.10;65.50;;;24.60;59.88;96351.53;6102463;23;19921;-86
2023/08/23 10:53:50;;;;;;;;;;;25.10;65.60;;;24.60;59.54;96352.34;6102953;23;19921;-86
2023/08/23 10:56:18;;;;;;;;;;;25.10;65.50;;;24.60;59.71;96346.75;6101724;23;20329;-86
2023/08/23 10:58:47;;;;;;;;;;;25.10;65.50;;;24.59;59.91;96344.31;6078417;23;19921;-86
2023/08/23 11:01:17;;;;;;;;;;;25.10;65.40;;;24.59;59.83;96344.31;6078501;23;19921;-86
2023/08/23 11:03:45;;;;;;;;;;;25.10;65.40;;;24.58;59.95;96351.09;6078380;23;19922;-86
2023/08/23 11:06:13;;;;;;;;;;;25.10;65.40;;;24.58;60.05;96348.28;6077954;23;19925;-87
2023/08/23 11:08:43;;;;;;;;;;;25.10;65.50;;;24.59;59.97;96349.91;6103010;23;19921;-87
2023/08/23 11:11:14;;;;;;;;;;;25.10;65.60;;;24.60;59.95;96355.16;6102929;23;19925;-87
2023/08/23 11:13:43;;;;;;;;;;;25.10;65.60;;;24.59;59.75;96338.72;6102786;23;19936;-87
2023/08/23 11:16:14;;;;;;;;;;;25.10;65.50;;;24.61;59.76;96339.16;6077912;23;19921;-87
2023/08/23 11:18:43;;;;;;;;;;;25.10;65.40;;;24.62;59.85;96332.38;6126868;23;19921;-87
2023/08/23 11:21:12;;;;;;;;;;;25.10;65.40;;;24.62;59.67;96330.41;6078398;23;20363;-89
2023/08/23 11:23:40;;;;;;;;;;;25.20;65.40;;;24.61;59.95;96319.56;6093310;23;20256;-87
2023/08/23 11:26:09;;;;;;;;;;;25.20;65.40;;;24.61;59.51;96326.00;6054534;23;19921;-87
2023/08/23 11:28:37;;;;;;;;;;;25.20;65.10;;;24.62;59.42;96318.38;6078170;23;19921;-87
2023/08/23 11:31:08;;;;;;;;;;;25.20;65.10;;;24.62;59.68;96315.59;6054776;23;19925;-87
2023/08/23 11:33:39;;;;;;;;;;;25.20;65.20;;;24.60;59.69;96315.13;6054834;23;19929;-87
2023/08/23 11:36:14;;;;;;;;;;;25.20;65.30;;;24.58;59.74;96306.31;6030989;23;19921;-87
2023/08/23 11:38:47;;;;;;;;;;;25.10;65.30;;;24.54;59.99;96297.78;6054362;23;20311;-87
2023/08/23 11:41:15;;;;;;;;;;;25.10;65.40;;;24.55;59.82;96298.63;6078258;23;19928;-87
2023/08/23 11:43:47;;;;;;;;;;;25.10;66.20;;;24.55;59.87;96301.41;6054409;23;19925;-87
2023/08/23 11:46:18;;;;;;;;;;;25.10;65.50;;;24.53;59.82;96296.16;6054309;23;19921;-87
2023/08/23 11:48:49;;;;;;;;;;;25.10;65.50;;;24.52;59.86;96292.56;6054140;23;19928;-87
2023/08/23 11:51:19;;;;;;;;;;;25.10;65.60;;;24.53;60.03;96290.56;6078753;23;19921;-87
2023/08/23 11:53:51;;;;;;;;;;;25.10;65.60;;;24.56;59.98;96294.66;6054623;23;19928;-87
2023/08/23 11:56:20;;;;;;;;;;;25.10;65.70;;;24.56;59.99;96292.66;6054413;23;19928;-87
2023/08/23 11:58:48;;;;;;;;;;;25.10;65.60;;;24.55;59.79;96293.81;6054280;23;20343;-87
2023/08/23 12:01:17;;;;;;;;;;;25.10;65.60;;;24.54;59.86;96291.41;6054197;23;19937;-87
2023/08/23 12:03:55;;;;;;;;;;;25.10;65.70;;;24.56;59.91;96286.25;6078376;23;20340;-87
2023/08/23 12:06:27;;;;;;;;;;;25.10;65.60;;;24.56;60.19;96291.84;6054295;23;20371;-87
2023/08/23 12:08:56;;;;;;;;;;;25.10;65.60;;;24.54;59.83;96272.59;6054485;23;19922;-87
2023/08/23 12:11:24;;;;;;;;;;;25.10;65.70;;;24.54;59.93;96283.00;6054485;23;19925;-87
2023/08/23 12:13:59;;;;;;;;;;;25.10;65.70;;;24.52;60.01;96277.78;6055189;23;20360;-87
2023/08/23 12:16:28;;;;;;;;;;;25.10;65.70;;;24.50;59.80;96275.31;6077664;23;19921;-87
2023/08/23 12:18:56;;;;;;;;;;;25.10;65.80;;;24.50;60.29;96269.72;6053926;23;19921;-87
2023/08/23 12:21:31;;;;;;;;;;;25.00;65.80;;;24.48;59.97;96272.06;6080767;23;20337;-87
2023/08/23 12:24:06;;;;;;;;;;;25.00;65.80;;;24.49;60.02;96273.69;6077950;23;20368;-87
2023/08/23 12:26:34;;;;;;;;;;;25.00;65.90;;;24.49;60.32;96270.09;6077239;23;19928;-87
2023/08/23 12:29:03;;;;;;;;;;;25.00;65.90;;;24.48;60.01;96260.06;6077803;23;19921;-87
2023/08/23 12:31:31;;;;;;;;;;;25.00;65.70;;;24.51;60.14;96262.97;6077226;23;20349;-87
2023/08/23 12:34:02;;;;;;;;;;;25.10;65.90;;;24.52;60.26;96260.97;6030593;23;19921;-87
2023/08/23 12:36:32;;;;;;;;;;;25.10;66.00;;;24.54;60.27;96258.63;6076834;23;19921;-87
2023/08/23 12:39:00;;;;;;;;;;;25.10;65.90;;;24.56;60.01;96259.06;6054204;23;20359;-87
2023/08/23 12:41:29;;;;;;;;;;;25.10;65.80;;;24.57;59.72;96251.50;6078168;23;19921;-87
2023/08/23 12:43:57;;;;;;;;;;;25.10;65.50;;;24.58;59.86;96251.13;6055210;23;19921;-87
2023/08/23 12:46:39;;;;;;;;;;;25.10;65.60;;;24.62;59.66;96251.22;6054726;23;19921;-87
2023/08/23 12:49:17;;;;;;;;;;;25.10;65.30;;;24.61;59.66;96253.22;6055774;23;20337;-87
2023/08/23 12:51:47;;;;;;;;;;;25.10;65.20;;;24.64;59.56;96257.28;6079335;23;19921;-87
2023/08/23 12:54:19;;;;;;;;;;;25.20;65.20;;;24.65;59.59;96251.31;6055345;23;20333;-87
2023/08/23 12:56:54;;;;;;;;;;;25.20;65.10;;;24.66;59.19;96255.72;6054583;23;19922;-87
2023/08/23 12:59:25;;;;;;;;;;;25.20;64.90;;;24.66;59.11;96244.53;6055730;23;19922;-87
2023/08/23 13:01:59;;;;;;;;;;;25.20;64.60;;;24.67;59.35;96245.34;6055608;23;19929;-87
2023/08/23 13:04:28;;;;;;;;;;;25.20;64.70;;;24.69;58.95;96251.44;6078790;23;19928;-87
2023/08/23 13:06:57;;;;;;;;;;;25.20;64.40;;;24.70;58.99;96244.66;6078810;23;19921;-87
2023/08/23 13:09:25;;;;;;;;;;;25.20;64.60;;;24.72;59.20;96253.50;6078530;23;19921;-87
2023/08/23 13:11:58;;;;;;;;;;;25.20;64.70;;;24.69;59.24;96240.25;6079017;23;19932;-87
2023/08/23 13:14:31;;;;;;;;;;;25.20;64.70;;;24.68;59.08;96235.78;6055382;23;19922;-87
2023/08/23 13:16:59;;;;;;;;;;;25.20;64.60;;;24.68;59.16;96235.78;6078493;23;19921;-87
2023/08/23 13:19:28;;;;;;;;;;;25.20;64.60;;;24.67;59.26;96234.16;6080523;23;19928;-87
2023/08/23 13:22:04;;;;;;;;;;;25.20;64.80;;;24.66;59.28;96233.31;6055334;23;20356;-87
2023/08/23 13:24:35;;;;;;;;;;;25.20;64.90;;;24.64;59.29;96229.28;6078898;23;19922;-87
2023/08/23 13:27:06;;;;;;;;;;;25.20;64.90;;;24.64;59.50;96223.69;6078398;23;19922;-87
2023/08/23 13:29:37;;;;;;;;;;;25.20;64.90;;;24.63;59.39;96224.84;6055375;23;19921;-87
2023/08/23 13:32:06;;;;;;;;;;;25.20;64.90;;;24.65;59.41;96225.31;6079295;23;19921;-87
2023/08/23 13:34:34;;;;;;;;;;;25.20;64.90;;;24.65;59.42;96223.34;6078580;23;19925;-87
2023/08/23 13:37:07;;;;;;;;;;;25.20;64.90;;;24.65;59.25;96225.31;6054453;23;19928;-87
2023/08/23 13:39:36;;;;;;;;;;;25.20;64.80;;;24.66;59.27;96226.94;6054857;23;19928;-87
2023/08/23 13:42:05;;;;;;;;;;;25.20;64.80;;;24.64;59.26;96235.69;6055120;23;19979;-87
2023/08/23 13:44:33;;;;;;;;;;;25.20;64.80;;;24.64;59.25;96244.09;6055018;23;19921;-87
2023/08/23 13:47:05;;;;;;;;;;;25.20;64.90;;;24.63;59.19;96255.63;6077453;23;19922;-87
2023/08/23 13:49:33;;;;;;;;;;;25.20;64.80;;;24.63;59.20;96294.81;6055183;23;19921;-87
2023/08/23 13:52:18;;;;;;;;;;;25.20;64.70;;;24.59;59.60;96283.53;6056382;23;19929;-87
2023/08/23 13:54:50;;;;;;;;;;;25.10;64.90;;;24.58;59.70;96281.13;6078672;23;19929;-87
2023/08/23 13:57:29;;;;;;;;;;;25.10;65.10;;;24.57;59.44;96273.91;6078310;23;19921;-87
2023/08/23 14:00:05;;;;;;;;;;;25.10;65.30;;;24.56;59.71;96277.88;6078944;23;19922;-87
2023/08/23 14:02:40;;;;;;;;;;;25.10;65.30;;;24.57;59.66;96276.69;6078765;23;20260;-87
2023/08/23 14:05:16;;;;;;;;;;;25.10;65.40;;;24.54;60.17;96269.00;6054691;23;19922;-87
2023/08/23 14:08:00;;;;;;;;;;;25.10;65.50;;;24.54;59.98;96280.19;6055152;23;19925;-87
2023/08/23 15:05:55;;;;;;;;;;;25.00;66.60;;;24.48;60.66;96291.66;6136432;23;19943;-87
2023/08/23 15:13:20;;;;;;;;;;;25.00;66.80;;;24.49;60.85;96300.88;6131605;23;19928;-87
2023/08/23 15:16:43;;;;;;;;;;;25.00;66.80;;;24.48;60.95;96300.03;6106966;23;19925;-87
2023/08/23 15:19:38;;;;;;;;;;;;;;;;;;;;;
2023/08/23 15:22:26;;;;;;;;;;;25.00;66.90;;;24.48;60.92;96283.25;6128258;23;19921;-87
2023/08/23 15:25:37;;;;;;;;;;;25.00;67.00;;;24.46;61.07;96279.19;6108868;23;19928;-88
2023/08/23 15:28:27;;;;;;;;;;;25.00;67.00;;;24.45;61.25;96283.16;6107191;23;19921;-87
2023/08/23 15:31:07;;;;;;;;;;;25.00;67.00;;;24.47;61.20;96270.44;6107836;23;19943;-87
2023/08/23 15:33:37;;;;;;;;;;;25.00;67.00;;;24.49;61.06;96278.50;6107251;23;19924;-87
2023/08/23 15:36:15;;;;;;;;;;;25.00;67.10;;;24.47;61.19;96267.63;6083212;23;19928;-87
2023/08/23 15:38:51;;;;;;;;;;;25.00;67.90;;;24.47;61.03;96264.84;6118649;23;20255;-87
2023/08/23 15:41:29;;;;;;;;;;;25.00;67.00;;;24.47;61.35;96269.63;6103677;23;19927;-87
2023/08/23 15:44:49;;;;;;;;;;;25.00;67.00;;;24.49;61.42;96279.28;6106743;23;19925;-87
2023/08/23 15:48:36;;;;;;;;;;;;;;;;;;;;;
2023/08/23 15:56:10;;;;;;;;;;;25.10;68.40;;;24.57;61.65;96299.88;6107290;23;19928;-87
2023/08/23 16:11:52;;;;;;;;;;;25.00;64.70;;;24.45;58.61;96294.38;5954520;24;20002;-87
2023/08/23 16:15:12;;;;;;;;;;;25.00;64.40;;;24.43;58.96;96294.72;6049887;23;20018;-87
2023/08/23 16:18:25;;;;;;;;;;;;;;;;;;;;;
2023/08/23 16:21:17;;;;;;;;;;;24.90;64.30;;;24.34;58.65;96299.66;6025297;23;19922;-87
2023/08/23 16:24:10;;;;;;;;;;;24.90;64.40;;;24.32;58.72;96302.84;6025761;23;19922;-87
2023/08/23 16:26:46;;;;;;;;;;;24.80;64.40;;;24.30;58.68;96307.16;6024017;23;19929;-87
2023/08/23 16:29:32;;;;;;;;;;;24.80;64.40;;;24.29;58.74;96314.72;6025516;23;19966;-87
2023/08/23 16:32:20;;;;;;;;;;;24.80;64.40;;;24.29;58.68;96309.13;6032808;23;19921;-87
2023/08/23 16:35:10;;;;;;;;;;;24.80;64.40;;;24.28;58.73;96315.09;6108263;23;19920;-87
2023/08/23 16:37:49;;;;;;;;;;;24.80;64.60;;;24.26;58.44;96309.88;6107818;23;19921;-87
2023/08/23 16:40:47;;;;;;;;;;;24.80;64.30;;;24.26;58.68;96321.06;6084174;23;20332;-87
2023/08/23 16:43:40;;;;;;;;;;;24.80;64.40;;;24.26;58.89;96314.66;6107792;23;19974;-87
2023/08/23 16:46:37;;;;;;;;;;;24.80;64.50;;;24.25;59.00;96311.03;6085394;23;19921;-87
2023/08/23 16:49:25;;;;;;;;;;;24.80;64.80;;;24.23;58.93;96309.75;6084426;23;19944;-87
2023/08/23 16:52:04;;;;;;;;;;;24.70;64.80;;;24.24;59.33;96316.97;6131183;23;19928;-87
2023/08/23 16:54:52;;;;;;;;;;;24.70;65.70;;;24.23;59.88;96320.94;6083855;23;19929;-87
2023/08/23 16:57:30;;;;;;;;;;;24.70;65.80;;;24.21;60.00;96310.13;6108143;23;19925;-87
2023/08/23 17:00:14;;;;;;;;;;;24.70;66.00;;;24.19;60.20;96304.06;6107937;23;20260;-87
2023/08/23 17:02:50;;;;;;;;;;;24.70;66.20;;;24.18;60.24;96311.66;6117941;23;19928;-87
2023/08/23 17:05:20;;;;;;;;;;;24.70;66.30;;;24.17;60.30;96312.00;6111326;23;20256;-87
2023/08/23 17:07:51;;;;;;;;;;;24.70;66.40;;;24.13;60.40;96311.91;6083786;23;19921;-87
2023/08/23 17:10:24;;;;;;;;;;;24.70;66.50;;;24.12;60.41;96310.28;6108130;23;19921;-87
2023/08/23 17:13:03;;;;;;;;;;;24.70;66.70;;;24.12;60.92;96312.28;6085968;23;19921;-87
2023/08/23 17:15:35;;;;;;;;;;;24.60;66.70;;;24.10;60.83;96312.59;6107894;23;19979;-87
2023/08/23 17:18:18;;;;;;;;;;;24.60;66.80;;;24.10;61.09;96321.00;6084604;23;20359;-87
2023/08/23 17:20:46;;;;;;;;;;;24.60;66.90;;;24.06;60.85;96311.72;6083870;23;19940;-87
2023/08/23 17:23:17;;;;;;;;;;;24.60;66.80;;;24.06;60.77;96322.91;6107795;23;19928;-87
2023/08/23 17:25:51;;;;;;;;;;;24.60;67.00;;;24.05;61.05;96321.28;6083620;23;20268;-87
2023/08/23 17:28:56;;;;;;;;;;;24.60;67.00;;;24.02;61.25;96331.16;6107534;23;19928;-87
2023/08/23 17:31:59;;;;;;;;;;;24.60;67.30;;;24.02;61.61;96347.16;6108407;23;19921;-87
2023/08/23 17:34:29;;;;;;;;;;;24.60;67.50;;;23.98;61.59;96337.84;6084240;23;20420;-87
2023/08/23 17:37:01;;;;;;;;;;;24.50;67.60;;;23.98;61.42;96335.03;6083311;23;19927;-87
2023/08/23 17:39:32;;;;;;;;;;;24.50;67.70;;;23.93;61.56;96324.88;6107331;23;19921;-87
2023/08/23 17:42:00;;;;;;;;;;;24.50;67.80;;;23.89;61.57;96324.78;6131481;23;19948;-87
2023/08/23 17:44:32;;;;;;;;;;;24.50;67.90;;;23.88;61.89;96330.75;6107828;23;19925;-87
2023/08/23 17:47:04;;;;;;;;;;;24.40;68.00;;;23.83;62.00;96331.78;6107506;23;19932;-87
2023/08/23 17:49:40;;;;;;;;;;;24.30;68.10;;;23.83;61.88;96340.19;6131260;23;19932;-87
2023/08/23 17:52:11;;;;;;;;;;;24.30;68.20;;;23.81;62.18;96333.31;6084495;23;19932;-87
2023/08/23 17:54:55;;;;;;;;;;;;;;;;;;;;;
2023/08/23 17:57:24;;;;;;;;;;;24.30;68.40;;;23.75;61.94;96330.75;6107720;23;19921;-87
2023/08/23 18:00:03;;;;;;;;;;;24.30;68.30;;;23.70;62.09;96338.59;6108712;23;19940;-87
2023/08/23 18:02:41;;;;;;;;;;;24.20;68.40;;;23.68;62.08;96343.72;6109307;23;19921;-87
2023/08/23 18:05:32;;;;;;;;;;;24.20;68.40;;;23.68;62.22;96352.91;6107796;23;19921;-87
2023/08/23 18:08:11;;;;;;;;;;;24.20;68.60;;;23.69;62.23;96351.75;6083503;23;19921;-87
2023/08/23 18:10:42;;;;;;;;;;;24.20;68.50;;;23.70;62.08;96360.94;6107831;23;19921;-87
2023/08/23 18:13:15;;;;;;;;;;;24.20;68.60;;;23.71;62.27;96356.97;6107682;23;19921;-87
2023/08/23 18:15:52;;;;;;;;;;;24.20;68.50;;;23.72;62.18;96365.03;6116562;23;20291;-87
2023/08/23 18:18:22;;;;;;;;;;;24.20;68.50;;;23.72;62.13;96369.78;6083375;23;19921;-87
2023/08/23 18:20:53;;;;;;;;;;;24.20;68.50;;;23.72;62.29;96367.00;6083853;23;19921;-87
2023/08/23 18:23:26;;;;;;;;;;;24.20;68.50;;;23.71;62.19;96356.97;6083924;23;19921;-87
2023/08/23 18:26:03;;;;;;;;;;;24.20;68.50;;;23.73;62.26;96363.03;6107162;23;19929;-87
2023/08/23 18:28:48;;;;;;;;;;;24.20;68.40;;;23.70;61.89;96360.94;6084964;23;20308;-87
2023/08/23 18:31:20;;;;;;;;;;;24.20;68.20;;;23.69;62.48;96359.34;6108001;23;20248;-86
2023/08/23 18:34:05;;;;;;;;;;;24.20;68.50;;;23.68;62.41;96357.72;6107980;23;19921;-87
2023/08/23 18:36:38;;;;;;;;;;;24.20;68.70;;;23.68;62.58;96368.88;6084100;23;19925;-87
2023/08/23 18:39:10;;;;;;;;;;;24.20;68.60;;;23.66;62.37;96366.44;6083058;23;19925;-87
2023/08/23 18:41:43;;;;;;;;;;;24.20;68.60;;;23.64;62.31;96365.97;6131874;23;19921;-87
2023/08/23 18:44:18;;;;;;;;;;;24.20;68.70;;;23.64;62.42;96367.97;6084132;23;19944;-87
2023/08/23 18:47:06;;;;;;;;;;;24.20;68.80;;;23.63;62.64;96377.50;6107705;23;19921;-87
2023/08/23 18:49:40;;;;;;;;;;;24.20;68.90;;;23.62;62.32;96375.88;6083898;23;20356;-87
2023/08/23 18:52:09;;;;;;;;;;;24.10;68.80;;;23.60;62.56;96379.03;6108078;23;20230;-87
2023/08/23 18:54:39;;;;;;;;;;;24.10;69.00;;;23.59;62.33;96377.41;6131137;23;19921;-87
2023/08/23 18:57:16;;;;;;;;;;;24.10;68.90;;;23.57;62.57;96379.72;6107584;23;20329;-87
2023/08/23 18:59:47;;;;;;;;;;;24.10;68.80;;;23.54;62.35;96386.84;6061687;23;19925;-87
2023/08/23 19:02:29;;;;;;;;;;;24.10;68.80;;;23.54;62.56;96381.25;6107516;23;20344;-87
2023/08/23 19:05:03;;;;;;;;;;;24.00;68.80;;;23.54;62.70;96381.25;6107519;23;19927;-87
2023/08/23 19:07:34;;;;;;;;;;;24.00;68.90;;;23.53;62.72;96374.03;6083775;23;19928;-87
2023/08/23 19:10:12;;;;;;;;;;;24.00;68.90;;;23.56;62.34;96376.09;6083585;23;19928;-87
2023/08/23 19:12:45;;;;;;;;;;;24.10;68.90;;;23.58;62.35;96370.19;6083928;23;19928;-87
2023/08/23 19:15:19;;;;;;;;;;;24.10;68.90;;;23.60;62.77;96373.44;6107360;23;19921;-87
2023/08/23 19:17:53;;;;;;;;;;;24.10;68.80;;;23.61;62.70;96363.91;6084414;23;20337;-86
2023/08/23 19:20:23;;;;;;;;;;;24.10;68.80;;;23.63;62.53;96375.50;6083588;23;19921;-87
2023/08/23 19:22:55;;;;;;;;;;;24.10;68.80;;;23.64;62.58;96379.13;6107829;23;19921;-87
2023/08/23 19:25:23;;;;;;;;;;;24.20;68.70;;;23.63;62.45;96388.69;6082802;23;19921;-87
2023/08/23 19:27:56;;;;;;;;;;;24.20;68.70;;;23.66;62.49;96383.19;6083105;23;19928;-86
2023/08/23 19:30:29;;;;;;;;;;;24.20;68.80;;;23.66;62.32;96382.41;6083059;23;20233;-86
2023/08/23 19:32:59;;;;;;;;;;;24.20;68.70;;;23.66;62.33;96383.19;6083190;23;20364;-86
2023/08/23 19:35:41;;;;;;;;;;;24.20;68.70;;;23.66;62.61;96383.19;6082900;23;20260;-86
2023/08/23 19:38:11;;;;;;;;;;;24.20;68.70;;;23.65;62.21;96375.97;6107080;23;19921;-86
2023/08/23 19:40:46;;;;;;;;;;;24.20;68.70;;;23.67;62.39;96379.25;6107321;23;20245;-86
2023/08/23 19:43:15;;;;;;;;;;;24.20;68.80;;;23.65;62.42;96375.97;6082819;23;19921;-87
2023/08/23 19:45:54;;;;;;;;;;;24.20;68.70;;;23.66;62.75;96382.41;6107002;23;19921;-87
2023/08/23 19:48:32;;;;;;;;;;;24.20;68.80;;;23.65;62.44;96383.56;6107122;23;19921;-87
2023/08/23 19:51:02;;;;;;;;;;;24.20;68.70;;;23.66;62.45;96388.00;6083168;23;19928;-87
2023/08/23 19:53:37;;;;;;;;;;;24.20;68.80;;;23.64;62.27;96382.72;6083456;23;19920;-87
2023/08/23 19:56:05;;;;;;;;;;;24.20;68.80;;;23.63;62.69;96377.50;6083044;23;19921;-87
2023/08/23 19:58:38;;;;;;;;;;;24.20;68.80;;;23.64;62.81;96387.53;6082806;23;20264;-87
2023/08/23 20:01:13;;;;;;;;;;;24.20;68.80;;;23.62;62.73;96378.66;6084153;23;19928;-87
2023/08/23 20:03:45;;;;;;;;;;;24.20;68.90;;;23.63;62.44;96377.50;6106955;23;20241;-87
2023/08/23 20:06:16;;;;;;;;;;;24.20;68.80;;;23.60;62.86;96374.25;6083464;23;20256;-87
2023/08/23 20:08:45;;;;;;;;;;;24.20;68.80;;;23.60;62.56;96379.03;6082899;23;19921;-87
2023/08/23 20:11:19;;;;;;;;;;;24.20;68.80;;;23.58;62.86;96365.38;6106921;23;19928;-87
2023/08/23 20:13:51;;;;;;;;;;;24.10;68.80;;;23.57;62.67;96369.34;6106631;23;19931;-87
2023/08/23 20:16:24;;;;;;;;;;;24.10;68.80;;;23.56;62.31;96359.34;6106915;23;20333;-87
2023/08/23 20:19:00;;;;;;;;;;;24.10;68.70;;;23.53;62.93;96357.25;6083884;23;19944;-87
2023/08/23 20:21:28;;;;;;;;;;;24.10;68.80;;;23.54;62.51;96360.88;6107176;23;19921;-86
2023/08/23 20:24:06;;;;;;;;;;;24.10;68.80;;;23.49;62.54;96353.53;6116759;23;19940;-87
2023/08/23 20:26:38;;;;;;;;;;;24.10;68.90;;;23.49;62.77;96359.13;6082943;23;19925;-87
2023/08/23 20:29:10;;;;;;;;;;;24.10;68.90;;;23.49;62.40;96364.72;6106910;23;19932;-87
2023/08/23 20:31:43;;;;;;;;;;;24.10;69.00;;;23.47;62.80;96355.06;6083219;23;19927;-87
2023/08/23 20:34:13;;;;;;;;;;;24.00;68.90;;;23.48;62.78;96362.28;6107160;23;19925;-86
2023/08/23 20:36:47;;;;;;;;;;;24.00;68.80;;;23.48;62.63;96356.69;6106460;23;20256;-87
2023/08/23 20:39:18;;;;;;;;;;;24.00;68.80;;;23.48;62.56;96354.69;6106839;23;20371;-87
2023/08/23 20:41:53;;;;;;;;;;;24.00;68.80;;;23.50;62.94;96357.13;6083898;23;19921;-87
2023/08/23 20:44:22;;;;;;;;;;;24.00;68.70;;;23.49;62.63;96359.13;6082856;23;19932;-87
2023/08/23 20:46:51;;;;;;;;;;;24.10;68.80;;;23.49;62.40;96367.50;6106407;23;19928;-87
2023/08/23 20:49:24;;;;;;;;;;;24.00;68.60;;;23.48;62.59;96365.06;6082782;23;20336;-86
2023/08/23 20:51:52;;;;;;;;;;;24.00;68.60;;;23.49;62.17;96373.09;6082736;23;19921;-87
2023/08/23 20:54:32;;;;;;;;;;;24.10;68.70;;;23.48;62.36;96370.66;6106940;23;19928;-87
2023/08/23 20:57:00;;;;;;;;;;;24.10;68.70;;;23.50;62.58;96376.69;6106261;23;19928;-87
2023/08/23 20:59:29;;;;;;;;;;;24.00;68.50;;;23.48;62.32;96379.84;6082722;23;19932;-87
2023/08/23 21:02:00;;;;;;;;;;;24.00;68.50;;;23.46;62.13;96384.97;6105971;23;20360;-87
2023/08/23 21:04:31;;;;;;;;;;;24.00;68.40;;;23.46;62.37;96393.34;6107515;23;19928;-86
2023/08/23 21:06:59;;;;;;;;;;;24.00;68.40;;;23.44;62.21;96409.66;6107430;23;19920;-86
2023/08/23 21:09:30;;;;;;;;;;;24.00;68.40;;;23.43;62.40;96428.41;6084246;23;19921;-86
2023/08/23 21:12:00;;;;;;;;;;;24.00;68.40;;;23.43;62.26;96430.41;6107933;23;19928;-86
2023/08/23 21:14:29;;;;;;;;;;;24.00;68.40;;;23.40;62.33;96422.69;6107720;23;19924;-87
2023/08/23 21:16:57;;;;;;;;;;;24.00;68.40;;;23.42;62.31;96434.34;6107832;23;20260;-87
2023/08/23 21:19:26;;;;;;;;;;;23.90;68.40;;;23.41;62.14;96438.31;6108042;23;19921;-87
2023/08/23 21:21:58;;;;;;;;;;;23.90;68.40;;;23.41;62.55;96450.28;6107794;23;19921;-87